Time;durP1;ratioP1;P1;durP2;ratioP2;P2;SDS_P1;SDS_P2;PMS_P1;PMS_P2;Temp;Humidity;BMP_temperature;BMP_pressure;BME280_temperature;BME280_humidity;BME280_pressure;Samples;Min_cycle;Max_cycle;Signal;HPM_P1;HPM_P2
2021/07/03 00:02:07;;;;;;;10.50;6.70;;;;;;;15.83;86.74;94785.47;5103937;28;20040;-71
2021/07/03 00:04:34;;;;;;;12.75;7.47;;;;;;;15.73;86.41;94772.31;5069890;28;20048;-72
2021/07/03 00:07:01;;;;;;;12.40;7.07;;;;;;;15.78;86.07;94785.47;5085445;28;20097;-71
2021/07/03 00:09:27;;;;;;;8.55;6.97;;;;;;;15.81;86.74;94795.47;5086551;28;20430;-71
2021/07/03 00:11:58;;;;;;;11.95;6.85;;;;;;;15.79;86.56;94792.31;5086465;28;20059;-71
2021/07/03 00:14:25;;;;;;;8.38;7.43;;;;;;;15.71;86.28;94779.69;5086584;28;20063;-71
2021/07/03 00:16:52;;;;;;;11.25;7.47;;;;;;;15.74;86.50;94789.69;5086392;28;20035;-70
2021/07/03 00:19:19;;;;;;;10.88;6.40;;;;;;;15.73;86.33;94782.81;5086770;28;20571;-71
2021/07/03 00:21:46;;;;;;;8.80;7.32;;;;;;;15.71;86.15;94784.94;5085325;28;20047;-71
2021/07/03 00:24:13;;;;;;;11.07;6.97;;;;;;;15.75;86.19;94786.00;5086655;28;20044;-71
2021/07/03 00:26:40;;;;;;;11.43;7.53;;;;;;;15.62;87.24;94807.53;5086586;28;20036;-71
2021/07/03 00:29:07;;;;;;;16.48;7.15;;;;;;;15.41;87.82;94786.53;5086398;28;20047;-71
2021/07/03 00:31:34;;;;;;;12.18;7.38;;;;;;;15.36;88.75;94810.13;5086205;28;20040;-71
2021/07/03 00:34:01;;;;;;;12.98;7.47;;;;;;;15.25;87.33;94805.91;5086385;28;20459;-71
2021/07/03 00:36:27;;;;;;;11.30;7.10;;;;;;;15.21;87.95;94797.75;5086373;28;20048;-71
2021/07/03 00:38:54;;;;;;;7.13;6.45;;;;;;;15.22;87.41;94804.59;5086090;28;20043;-72
2021/07/03 00:41:22;;;;;;;8.35;7.35;;;;;;;15.18;87.89;94797.50;5086220;28;20089;-72
2021/07/03 00:43:49;;;;;;;7.43;6.30;;;;;;;15.18;87.54;94793.06;5086161;28;20421;-71
2021/07/03 00:46:16;;;;;;;7.68;6.93;;;;;;;15.19;87.83;94805.13;5086061;28;20397;-71
2021/07/03 00:48:44;;;;;;;9.40;7.40;;;;;;;15.16;88.08;94799.59;5086432;28;20040;-71
2021/07/03 00:51:13;;;;;;;9.52;7.18;;;;;;;15.06;87.71;94801.16;5101312;28;20044;-71
2021/07/03 00:53:41;;;;;;;9.95;6.68;;;;;;;14.92;88.08;94794.84;5101657;28;20036;-71
2021/07/03 00:56:09;;;;;;;8.45;7.55;;;;;;;14.93;88.85;94796.41;5087337;28;20055;-71
2021/07/03 00:58:35;;;;;;;9.35;7.68;;;;;;;14.86;89.05;94788.78;5067710;28;20501;-70
2021/07/03 01:01:04;;;;;;;8.23;7.43;;;;;;;14.87;89.96;94792.19;5100692;28;20493;-71
2021/07/03 01:03:31;;;;;;;8.85;7.18;;;;;;;14.82;90.03;94781.69;5085952;28;20044;-71
2021/07/03 01:05:57;;;;;;;9.23;8.02;;;;;;;14.87;90.72;94792.19;5088701;28;20109;-71
2021/07/03 01:08:26;;;;;;;11.48;7.95;;;;;;;14.83;91.28;94791.91;5084657;28;20097;-71
2021/07/03 01:10:53;;;;;;;9.25;8.18;;;;;;;14.80;91.76;94796.88;5085269;28;20720;-71
2021/07/03 01:13:27;;;;;;;11.43;8.25;;;;;;;14.79;91.73;94795.34;5067348;28;20046;-71
2021/07/03 01:15:58;;;;;;;10.13;8.70;;;;;;;14.79;91.67;94800.56;5067545;28;20394;-71
2021/07/03 01:18:28;;;;;;;10.77;8.20;;;;;;;14.68;91.75;94790.06;5085376;28;20381;-71
2021/07/03 01:20:56;;;;;;;11.32;8.50;;;;;;;14.66;92.44;94789.53;5064970;28;20493;-71
2021/07/03 01:23:23;;;;;;;13.45;9.10;;;;;;;14.59;92.64;94791.59;5083993;28;20119;-71
2021/07/03 01:25:56;;;;;;;11.95;9.77;;;;;;;14.66;92.93;94786.91;5050814;28;20044;-71
2021/07/03 01:28:26;;;;;;;9.27;8.48;;;;;;;14.71;93.38;94789.53;5100151;28;20048;-71
2021/07/03 01:30:54;;;;;;;12.98;9.32;;;;;;;14.67;93.11;94777.97;5067018;28;20067;-71
2021/07/03 01:33:22;;;;;;;10.80;9.20;;;;;;;14.47;94.01;94751.69;5067371;28;20032;-71
2021/07/03 01:35:50;;;;;;;11.88;9.07;;;;;;;14.55;94.37;94780.03;5101085;28;20052;-71
2021/07/03 01:38:23;;;;;;;9.00;8.10;;;;;;;14.60;93.34;94787.91;5085554;28;20040;-71
2021/07/03 01:40:54;;;;;;;13.57;8.88;;;;;;;14.65;94.00;94790.56;5087238;28;20111;-71
2021/07/03 01:43:29;;;;;;;10.98;8.60;;;;;;;14.60;94.12;94787.91;5066839;28;20123;-70
2021/07/03 01:45:59;;;;;;;10.05;7.70;;;;;;;14.57;93.63;94793.66;5084503;28;20119;-71
2021/07/03 01:48:32;;;;;;;9.00;7.57;;;;;;;14.52;93.70;94788.38;5085221;28;20044;-71
2021/07/03 01:51:03;;;;;;;8.52;7.72;;;;;;;14.54;93.21;94794.16;5101902;28;20547;-71
2021/07/03 01:53:31;;;;;;;12.32;7.63;;;;;;;14.54;93.03;94787.06;5085424;28;20115;-71
2021/07/03 01:56:01;;;;;;;9.13;8.32;;;;;;;14.46;93.32;94784.19;5066747;28;20048;-71
2021/07/03 01:58:30;;;;;;;9.02;7.28;;;;;;;14.39;92.94;94781.78;5066949;28;20135;-71
2021/07/03 02:01:18;;;;;;;9.05;8.27;;;;;;;14.28;93.34;94772.31;5084856;28;20055;-71
2021/07/03 02:03:46;;;;;;;8.57;7.43;;;;;;;14.42;93.34;94785.72;5085204;28;20117;-71
2021/07/03 02:06:21;;;;;;;11.15;7.93;;;;;;;14.40;92.86;94793.84;5065799;28;20123;-72
2021/07/03 02:08:48;;;;;;;9.07;7.63;;;;;;;14.38;92.46;94790.69;5085449;28;20040;-71
2021/07/03 02:11:17;;;;;;;12.10;7.60;;;;;;;14.43;92.81;94797.78;5100842;28;20525;-71
2021/07/03 02:13:49;;;;;;;8.10;7.30;;;;;;;14.44;91.96;94794.91;5100680;28;20040;-72
2021/07/03 02:16:22;;;;;;;8.73;6.47;;;;;;;14.47;91.72;94798.84;5100698;28;20046;-71
2021/07/03 02:18:50;;;;;;;7.78;6.97;;;;;;;14.49;91.52;94791.50;5100488;28;20056;-72
2021/07/03 02:21:23;;;;;;;7.43;6.82;;;;;;;14.45;91.72;94795.69;5065432;28;20052;-71
2021/07/03 02:23:50;;;;;;;8.70;7.90;;;;;;;14.35;91.97;94788.59;5066691;28;20040;-71
2021/07/03 02:26:18;;;;;;;8.25;7.43;;;;;;;14.18;92.73;94780.91;5049457;28;20105;-71
2021/07/03 02:28:45;;;;;;;10.82;7.90;;;;;;;14.08;93.56;94781.66;5083653;28;20101;-71
2021/07/03 02:31:17;;;;;;;17.52;8.30;;;;;;;14.14;93.15;94787.69;5067003;28;20059;-71
2021/07/03 02:33:51;;;;;;;8.90;7.90;;;;;;;14.17;93.04;94784.56;5072004;28;20048;-72
2021/07/03 02:36:20;;;;;;;8.00;7.18;;;;;;;14.17;92.64;94784.56;5104218;28;20036;-71
2021/07/03 02:38:48;;;;;;;8.20;7.40;;;;;;;14.02;92.29;94772.16;5071805;28;20487;-71
2021/07/03 02:41:23;;;;;;;7.67;7.00;;;;;;;14.07;92.14;94789.75;5103946;27;20044;-71
2021/07/03 02:43:50;;;;;;;7.13;6.25;;;;;;;14.15;91.68;94792.69;5088227;28;20118;-71
2021/07/03 02:46:16;;;;;;;7.38;6.18;;;;;;;14.19;91.66;94792.97;5070061;28;20486;-71
2021/07/03 02:48:43;;;;;;;8.73;5.78;;;;;;;14.15;91.70;94789.25;5088674;28;20051;-71
2021/07/03 02:51:11;;;;;;;7.03;6.43;;;;;;;14.18;91.25;94796.59;5086892;28;20162;-71
2021/07/03 02:53:38;;;;;;;7.05;6.43;;;;;;;14.15;90.67;94791.88;5069933;28;20044;-71
2021/07/03 02:56:05;;;;;;;8.13;7.00;;;;;;;14.26;91.09;94798.75;5070010;28;20063;-71
2021/07/03 02:58:35;;;;;;;7.72;6.95;;;;;;;14.32;90.96;94808.22;5103442;27;20062;-71
2021/07/03 03:01:03;;;;;;;8.70;6.63;;;;;;;14.33;90.47;94799.31;5069795;28;20044;-71
2021/07/03 03:03:32;;;;;;;7.63;6.90;;;;;;;14.36;90.23;94807.72;5086933;28;20040;-71
2021/07/03 03:05:59;;;;;;;8.90;6.50;;;;;;;14.26;90.37;94801.38;5087599;28;20059;-71
2021/07/03 03:08:26;;;;;;;7.93;6.88;;;;;;;14.34;90.26;94808.75;5103485;28;20532;-71
2021/07/03 03:10:55;;;;;;;7.00;6.40;;;;;;;14.31;90.54;94817.13;5099771;28;20048;-71
2021/07/03 03:13:22;;;;;;;7.47;6.07;;;;;;;14.38;90.21;94811.63;5065902;28;20094;-71
2021/07/03 03:15:51;;;;;;;7.57;6.68;;;;;;;14.34;90.17;94806.13;5067757;28;20064;-72
2021/07/03 03:18:18;;;;;;;8.95;5.90;;;;;;;14.44;89.70;94820.31;5067303;28;20037;-71
2021/07/03 03:20:46;;;;;;;7.57;5.80;;;;;;;14.31;89.78;94803.22;5066016;28;20443;-71
2021/07/03 03:23:14;;;;;;;7.18;6.47;;;;;;;14.28;90.15;94811.59;5065674;28;20039;-71
2021/07/03 03:25:41;;;;;;;8.90;6.82;;;;;;;14.44;89.75;94836.03;5066181;28;20056;-71
2021/07/03 03:28:09;;;;;;;8.80;5.88;;;;;;;14.46;89.78;94828.72;5100110;27;20040;-71
2021/07/03 03:30:37;;;;;;;10.45;6.30;;;;;;;14.39;89.64;94833.41;5066000;28;20044;-72
2021/07/03 03:33:09;;;;;;;7.55;6.57;;;;;;;14.29;89.62;94828.88;5065756;28;20135;-71
2021/07/03 03:35:37;;;;;;;9.95;6.10;;;;;;;14.31;89.24;94819.75;5049200;28;20037;-71
2021/07/03 03:38:06;;;;;;;6.50;5.90;;;;;;;14.40;89.62;94834.97;5067659;28;20062;-72
2021/07/03 03:40:34;;;;;;;8.07;5.78;;;;;;;14.50;89.76;94841.06;5067618;28;20158;-71
2021/07/03 03:43:03;;;;;;;6.97;5.82;;;;;;;14.48;89.04;94839.75;5066746;28;20437;-72
2021/07/03 03:45:33;;;;;;;5.65;5.15;;;;;;;14.54;89.36;94857.06;5099397;28;20072;-72
2021/07/03 03:48:02;;;;;;;6.32;4.68;;;;;;;14.59;89.01;94859.75;5066946;28;20036;-72
2021/07/03 03:50:37;;;;;;;5.85;4.63;;;;;;;14.58;88.73;94852.91;5066896;28;20041;-72
2021/07/03 03:53:04;;;;;;;6.00;4.30;;;;;;;14.43;88.30;94834.47;5066470;28;20051;-71
2021/07/03 03:55:32;;;;;;;5.18;4.68;;;;;;;14.57;88.76;94856.56;5065553;28;20568;-72
2021/07/03 03:57:59;;;;;;;6.45;4.05;;;;;;;14.63;87.47;94850.31;5066754;28;20044;-71
2021/07/03 04:00:28;;;;;;;4.50;4.20;;;;;;;14.65;87.75;94840.34;5066544;28;20036;-72
2021/07/03 04:03:01;;;;;;;4.68;4.28;;;;;;;14.59;87.50;94833.53;5064974;28;20040;-73
2021/07/03 04:05:39;;;;;;;5.10;4.60;;;;;;;14.70;87.05;94843.00;5064996;28;20044;-72
2021/07/03 04:08:06;;;;;;;4.28;3.88;;;;;;;14.71;87.13;94849.03;5064924;28;20051;-72
2021/07/03 04:10:34;;;;;;;3.97;3.67;;;;;;;14.75;86.92;94855.34;5067542;28;20525;-72
2021/07/03 04:13:01;;;;;;;6.28;3.92;;;;;;;14.78;86.22;94854.03;5088224;28;20040;-71
2021/07/03 04:15:28;;;;;;;6.82;3.83;;;;;;;14.84;86.63;94856.44;5086842;28;20451;-72
2021/07/03 04:17:55;;;;;;;4.90;4.35;;;;;;;14.88;86.17;94851.47;5086474;28;20062;-72
2021/07/03 04:20:22;;;;;;;4.78;4.20;;;;;;;14.86;85.81;94853.56;5086524;28;20052;-72
2021/07/03 04:22:49;;;;;;;4.55;4.15;;;;;;;14.88;85.75;94848.84;5085465;28;20119;-72
2021/07/03 04:25:16;;;;;;;7.00;4.72;;;;;;;14.94;85.79;94855.66;5088092;28;20062;-71
2021/07/03 04:27:43;;;;;;;5.03;4.50;;;;;;;14.98;85.85;94862.00;5085540;28;20052;-72
2021/07/03 04:30:11;;;;;;;6.18;4.75;;;;;;;15.01;86.64;94850.19;5068170;28;20075;-72
2021/07/03 04:32:42;;;;;;;5.47;4.90;;;;;;;15.17;85.90;94858.91;5102153;28;20043;-72
2021/07/03 04:35:10;;;;;;;4.70;3.92;;;;;;;15.22;85.02;94851.81;5086590;28;20036;-72
2021/07/03 04:37:37;;;;;;;4.10;3.70;;;;;;;15.15;84.50;94850.50;5086698;28;20054;-71
2021/07/03 04:40:06;;;;;;;6.07;4.10;;;;;;;15.17;84.92;94848.41;5085097;28;20036;-72
2021/07/03 04:42:33;;;;;;;6.38;4.10;;;;;;;15.36;85.48;94852.13;5086548;28;20054;-72
2021/07/03 04:45:00;;;;;;;4.70;4.22;;;;;;;15.30;85.21;94845.28;5085894;28;20505;-71
2021/07/03 04:47:31;;;;;;;7.28;4.60;;;;;;;15.46;85.45;94856.59;5068223;28;20472;-72
2021/07/03 04:49:58;;;;;;;10.93;3.55;;;;;;;15.48;86.08;94852.66;5087678;28;20047;-72
2021/07/03 04:52:26;;;;;;;6.70;4.18;;;;;;;15.53;85.47;94856.34;5087645;28;20062;-72
2021/07/03 04:54:53;;;;;;;5.57;3.95;;;;;;;15.55;85.55;94865.53;5085313;28;20038;-72
2021/07/03 04:57:20;;;;;;;5.32;3.92;;;;;;;15.68;85.17;94865.03;5090334;28;20047;-72
2021/07/03 04:59:47;;;;;;;5.40;4.10;;;;;;;15.79;85.30;94859.78;5085993;28;20051;-72
2021/07/03 05:02:14;;;;;;;9.35;4.10;;;;;;;15.86;85.13;94866.38;5086191;28;20788;-72
2021/07/03 05:04:42;;;;;;;10.73;4.80;;;;;;;15.82;84.68;94869.78;5085980;28;20038;-72
2021/07/03 05:07:10;;;;;;;5.22;4.18;;;;;;;15.93;85.44;94865.31;5086019;28;20452;-72
2021/07/03 05:09:59;;;;;;;4.10;3.70;;;;;;;16.01;85.28;94859.53;5067348;28;20770;-72
2021/07/03 05:12:26;;;;;;;8.40;3.80;;;;;;;16.03;85.78;94855.59;5085845;28;20051;-72
2021/07/03 05:14:54;;;;;;;3.83;3.40;;;;;;;16.16;85.56;94859.50;5087198;28;20048;-72
2021/07/03 05:17:21;;;;;;;6.82;3.00;;;;;;;16.32;84.04;94854.25;5085890;28;20039;-71
2021/07/03 05:19:48;;;;;;;4.05;3.65;;;;;;;16.49;84.16;94862.59;5085689;28;20096;-72
2021/07/03 05:22:14;;;;;;;7.72;3.83;;;;;;;16.61;83.61;94867.56;5082871;28;20048;-72
2021/07/03 05:24:41;;;;;;;3.17;2.88;;;;;;;16.71;82.69;94861.47;5085292;28;20032;-72
2021/07/03 05:27:08;;;;;;;6.22;3.40;;;;;;;16.75;82.13;94849.38;5068168;28;20039;-72
2021/07/03 05:29:35;;;;;;;5.07;3.22;;;;;;;17.05;81.15;94863.47;5085744;28;20055;-72
2021/07/03 05:32:02;;;;;;;5.88;3.30;;;;;;;17.09;80.54;94848.75;5085040;28;20040;-72
2021/07/03 05:34:29;;;;;;;9.98;3.67;;;;;;;17.31;80.87;94862.28;5085660;28;20413;-73
2021/07/03 05:36:57;;;;;;;13.98;4.22;;;;;;;17.45;78.81;94853.78;5083759;28;20062;-72
2021/07/03 05:39:24;;;;;;;9.75;4.40;;;;;;;17.53;78.77;94847.94;5084849;28;20100;-72
2021/07/03 05:41:50;;;;;;;5.78;3.33;;;;;;;17.61;75.32;94860.53;5085045;28;20521;-73
2021/07/03 05:44:17;;;;;;;6.70;2.78;;;;;;;17.63;77.44;94847.88;5084900;28;20039;-73
2021/07/03 05:46:44;;;;;;;7.55;2.83;;;;;;;17.82;75.08;94860.38;5084826;28;20048;-73
2021/07/03 05:49:11;;;;;;;6.38;3.15;;;;;;;17.95;75.40;94849.22;5084815;28;20101;-72
2021/07/03 05:51:38;;;;;;;5.03;2.80;;;;;;;18.22;74.90;94858.50;5084671;28;20426;-72
2021/07/03 05:54:05;;;;;;;7.40;3.58;;;;;;;18.39;73.98;94853.59;5085174;28;20488;-72
2021/07/03 05:56:31;;;;;;;5.20;2.95;;;;;;;18.57;73.16;94859.22;5085295;28;20054;-73
2021/07/03 05:59:01;;;;;;;4.55;3.00;;;;;;;18.61;73.45;94860.22;5085505;28;20059;-72
2021/07/03 06:01:28;;;;;;;6.40;3.65;;;;;;;18.52;72.31;94863.44;5084967;28;20070;-72
2021/07/03 06:03:55;;;;;;;4.80;3.20;;;;;;;18.46;71.38;94864.59;5084805;28;20097;-72
2021/07/03 06:06:22;;;;;;;4.70;3.33;;;;;;;18.53;72.38;94859.75;5086494;28;20610;-72
2021/07/03 06:08:48;;;;;;;3.60;2.92;;;;;;;18.64;72.43;94871.00;5088619;28;20101;-72
2021/07/03 06:11:16;;;;;;;6.03;3.72;;;;;;;18.75;72.88;94870.88;5088401;28;20040;-72
2021/07/03 06:13:43;;;;;;;5.70;3.75;;;;;;;18.87;69.88;94864.16;5088486;28;20038;-72
2021/07/03 06:16:10;;;;;;;4.60;3.30;;;;;;;18.91;69.54;94870.44;5088237;28;20036;-73
2021/07/03 06:18:37;;;;;;;6.13;3.35;;;;;;;18.96;68.58;94866.16;5089061;28;20536;-73
2021/07/03 06:21:03;;;;;;;8.32;3.53;;;;;;;18.83;67.83;94857.88;5088113;28;20043;-72
2021/07/03 06:23:30;;;;;;;9.05;3.72;;;;;;;18.70;68.40;94863.81;5087886;28;20105;-72
2021/07/03 06:26:00;;;;;;;4.43;2.85;;;;;;;18.80;67.93;94855.78;5090542;28;20968;-72
2021/07/03 06:28:27;;;;;;;7.38;3.40;;;;;;;18.89;66.49;94862.03;5090949;28;20040;-72
2021/07/03 06:30:54;;;;;;;6.53;3.33;;;;;;;18.89;66.92;94856.75;5089027;28;20386;-72
2021/07/03 06:33:21;;;;;;;8.93;3.25;;;;;;;18.98;66.21;94869.31;5091004;28;20047;-73
2021/07/03 06:35:48;;;;;;;7.28;3.08;;;;;;;18.89;65.80;94854.13;5094160;28;20051;-73
2021/07/03 06:38:15;;;;;;;7.95;3.25;;;;;;;19.01;65.87;94863.47;5092759;28;20051;-73
2021/07/03 06:40:42;;;;;;;5.10;3.15;;;;;;;19.07;64.73;94870.28;5087920;28;20437;-72
2021/07/03 06:43:09;;;;;;;10.88;3.42;;;;;;;19.21;63.55;94868.50;5086808;28;20040;-72
2021/07/03 06:45:36;;;;;;;7.57;3.33;;;;;;;19.36;64.42;94874.66;5087293;28;20044;-72
2021/07/03 06:48:03;;;;;;;3.17;2.67;;;;;;;19.46;63.20;94869.22;5087068;28;20073;-74
2021/07/03 06:50:30;;;;;;;7.03;2.97;;;;;;;19.36;62.50;94864.88;5086850;28;20425;-73
2021/07/03 06:52:57;;;;;;;8.55;3.10;;;;;;;19.48;62.33;94864.44;5087466;28;20036;-72
2021/07/03 06:55:24;;;;;;;4.60;2.90;;;;;;;19.54;61.45;94860.66;5087746;28;20048;-72
2021/07/03 06:57:51;;;;;;;6.25;2.85;;;;;;;19.77;62.68;94858.22;5088172;28;20036;-72
2021/07/03 07:00:18;;;;;;;9.40;2.88;;;;;;;19.93;61.85;94856.91;5087107;28;20043;-72
2021/07/03 07:02:45;;;;;;;6.93;2.58;;;;;;;20.12;60.63;94851.59;5087235;28;20529;-72
2021/07/03 07:05:12;;;;;;;10.00;2.50;;;;;;;20.02;59.70;94857.03;5087395;28;20046;-72
2021/07/03 07:07:39;;;;;;;4.03;2.72;;;;;;;19.90;60.69;94865.44;5083135;28;20991;-72
2021/07/03 07:10:07;;;;;;;3.95;2.95;;;;;;;19.76;58.94;94846.09;5083722;28;20505;-72
2021/07/03 07:12:34;;;;;;;5.78;2.97;;;;;;;19.86;60.86;94856.50;5087880;28;20054;-72
2021/07/03 07:15:01;;;;;;;6.80;3.20;;;;;;;19.93;61.09;94861.41;5089134;28;20066;-73
2021/07/03 07:17:28;;;;;;;5.78;2.65;;;;;;;19.83;60.00;94849.16;5087408;28;20122;-73
2021/07/03 07:19:55;;;;;;;7.40;2.70;;;;;;;19.99;60.75;94868.97;5087785;28;20048;-72
2021/07/03 07:22:22;;;;;;;4.75;2.17;;;;;;;20.11;59.90;94862.44;5085793;28;20032;-73
2021/07/03 07:24:49;;;;;;;7.80;2.35;;;;;;;19.75;60.52;94857.72;5089670;28;20047;-72
2021/07/03 07:27:15;;;;;;;6.22;2.50;;;;;;;19.65;60.82;94862.06;5087947;28;20070;-72
2021/07/03 07:29:42;;;;;;;6.03;2.42;;;;;;;19.32;61.92;94852.50;5088030;28;20044;-72
2021/07/03 07:32:14;;;;;;;12.13;3.42;;;;;;;19.24;62.50;94857.38;5087096;28;20044;-73
2021/07/03 07:34:41;;;;;;;4.10;2.72;;;;;;;19.30;62.95;94871.28;5069863;28;20475;-72
2021/07/03 07:37:09;;;;;;;10.27;2.78;;;;;;;19.31;62.64;94875.50;5087334;28;20417;-72
2021/07/03 07:39:36;;;;;;;6.50;3.35;;;;;;;19.36;62.23;94842.97;5087317;28;20050;-72
2021/07/03 07:42:03;;;;;;;10.10;3.00;;;;;;;19.46;61.82;94879.78;5067458;28;20052;-72
2021/07/03 07:44:30;;;;;;;6.72;3.15;;;;;;;19.50;62.69;94870.22;5086202;28;20048;-71
2021/07/03 07:46:57;;;;;;;6.93;2.83;;;;;;;19.51;62.25;94866.50;5086753;28;20097;-74
2021/07/03 07:49:24;;;;;;;7.25;3.65;;;;;;;19.59;62.13;94867.72;5087379;28;20140;-73
2021/07/03 07:51:51;;;;;;;8.00;4.57;;;;;;;19.78;61.48;94878.31;5086985;28;20111;-73
2021/07/03 07:54:18;;;;;;;10.25;4.90;;;;;;;19.75;61.25;94865.66;5087684;28;20036;-72
2021/07/03 07:56:44;;;;;;;9.77;3.50;;;;;;;19.96;61.56;94872.19;5087684;28;20039;-72
2021/07/03 07:59:11;;;;;;;4.88;3.50;;;;;;;20.10;60.48;94876.75;5087161;28;20036;-72
2021/07/03 08:01:38;;;;;;;9.40;4.03;;;;;;;20.13;60.56;94866.38;5087406;28;20040;-73
2021/07/03 08:04:05;;;;;;;6.10;3.10;;;;;;;20.22;59.62;94853.25;5087077;28;20050;-72
2021/07/03 08:06:32;;;;;;;4.15;3.63;;;;;;;20.32;59.14;94865.53;5086816;28;20040;-73
2021/07/03 08:08:58;;;;;;;4.43;3.10;;;;;;;20.49;59.33;94857.84;5086991;28;20591;-73
2021/07/03 08:11:25;;;;;;;4.32;3.92;;;;;;;20.52;58.94;94845.88;5086429;28;20052;-73
2021/07/03 08:13:52;;;;;;;5.18;3.40;;;;;;;20.50;58.12;94837.44;5086878;28;20102;-73
2021/07/03 08:16:19;;;;;;;4.00;3.38;;;;;;;20.54;58.80;94864.88;5085871;28;20044;-72
2021/07/03 08:18:46;;;;;;;8.35;3.25;;;;;;;20.39;58.48;94848.19;5086107;28;20044;-69
2021/07/03 08:21:13;;;;;;;5.50;3.50;;;;;;;20.35;57.94;94857.03;5067234;28;20081;-72
2021/07/03 08:23:40;;;;;;;3.88;3.25;;;;;;;20.36;58.20;94862.00;5086072;28;20044;-74
2021/07/03 08:26:07;;;;;;;4.95;3.28;;;;;;;20.58;58.24;94860.56;5087376;28;20036;-73
2021/07/03 08:28:34;;;;;;;5.63;3.67;;;;;;;20.67;57.88;94866.78;5086546;28;20046;-74
2021/07/03 08:31:01;;;;;;;4.50;3.30;;;;;;;20.73;58.16;94884.13;5087583;28;20039;-74
2021/07/03 08:33:28;;;;;;;5.22;3.63;;;;;;;20.58;57.47;94876.44;5086376;28;20044;-73
2021/07/03 08:35:55;;;;;;;5.72;3.03;;;;;;;20.40;58.66;94870.94;5086618;28;20036;-74
2021/07/03 08:38:23;;;;;;;5.97;3.40;;;;;;;20.57;59.16;94859.78;5086664;28;20164;-75
2021/07/03 08:40:50;;;;;;;9.20;3.97;;;;;;;21.08;56.47;94868.63;5088323;28;20046;-74
2021/07/03 08:43:17;;;;;;;5.75;4.05;;;;;;;21.40;55.57;94864.25;5086977;28;20048;-75
2021/07/03 08:45:44;;;;;;;3.42;3.00;;;;;;;21.57;55.93;94867.09;5087601;28;20057;-76
2021/07/03 08:48:18;;;;;;;3.80;3.40;;;;;;;21.57;55.24;94864.44;5087431;28;20043;-74
2021/07/03 08:50:44;;;;;;;4.35;3.63;;;;;;;21.68;55.32;94866.84;5086485;28;20032;-77
2021/07/03 08:53:11;;;;;;;6.75;3.95;;;;;;;21.66;55.44;94863.69;5086425;28;20054;-73
2021/07/03 08:55:38;;;;;;;7.93;4.40;;;;;;;21.75;54.91;94861.91;5086106;28;20036;-74
2021/07/03 08:58:06;;;;;;;5.03;3.80;;;;;;;21.63;55.23;94856.38;5085988;28;20058;-75
2021/07/03 09:00:38;;;;;;;5.55;3.80;;;;;;;21.47;56.06;94867.31;5085734;28;20516;-73
2021/07/03 09:03:20;;;;;;;7.30;4.15;;;;;;;21.50;55.55;94868.56;5085411;28;20047;-75
2021/07/03 09:05:55;;;;;;;4.78;4.28;;;;;;;21.28;55.67;94869.28;5085555;28;20043;-74
2021/07/03 09:08:28;;;;;;;6.93;4.72;;;;;;;21.11;58.27;94878.63;5088054;28;20047;-74
2021/07/03 09:11:07;;;;;;;5.97;4.28;;;;;;;20.83;56.66;94855.91;5084247;28;20609;-74
2021/07/03 09:13:38;;;;;;;6.75;4.80;;;;;;;20.79;57.19;94866.28;5085321;28;20044;-75
2021/07/03 09:16:06;;;;;;;6.07;5.35;;;;;;;20.71;57.57;94873.06;5085304;28;20556;-75
2021/07/03 09:18:33;;;;;;;8.40;4.68;;;;;;;20.64;58.59;94864.72;5084502;28;20032;-74
2021/07/03 09:21:03;;;;;;;9.77;5.32;;;;;;;20.90;58.85;94866.88;5085111;28;20048;-75
2021/07/03 09:23:32;;;;;;;6.05;4.80;;;;;;;20.88;57.33;94861.09;5084793;28;20043;-74
2021/07/03 09:26:05;;;;;;;5.07;4.50;;;;;;;20.96;57.81;94866.50;5087410;28;20040;-74
2021/07/03 09:28:38;;;;;;;7.50;4.72;;;;;;;21.08;57.82;94858.03;5085514;28;20040;-74
2021/07/03 09:31:06;;;;;;;5.60;4.43;;;;;;;21.13;57.76;94847.34;5084645;28;20055;-74
2021/07/03 09:33:39;;;;;;;7.10;4.70;;;;;;;21.52;57.55;94851.31;5079560;28;20104;-75
2021/07/03 09:36:08;;;;;;;6.20;4.40;;;;;;;22.19;56.12;94849.72;5064869;28;20162;-75
2021/07/03 09:38:50;;;;;;;6.95;4.57;;;;;;;22.76;54.11;94840.31;5083640;28;20044;-75
2021/07/03 09:41:23;;;;;;;6.32;4.85;;;;;;;22.84;52.33;94844.88;5086060;28;20050;-74
2021/07/03 09:43:50;;;;;;;7.72;5.05;;;;;;;22.48;51.28;94843.19;5104396;27;20127;-75
2021/07/03 09:46:23;;;;;;;6.63;4.82;;;;;;;22.23;50.80;94848.00;5088706;28;20121;-74
2021/07/03 09:48:53;;;;;;;8.00;4.43;;;;;;;21.80;52.48;94829.97;5089292;28;20097;-75
2021/07/03 09:51:45;;;;;;;6.43;4.40;;;;;;;21.78;53.84;94832.16;5087674;28;20102;-75
2021/07/03 09:54:13;;;;;;;7.03;4.07;;;;;;;22.09;52.70;94836.69;5082274;28;20059;-75
2021/07/03 09:56:41;;;;;;;9.80;3.45;;;;;;;22.21;51.93;94831.63;5088610;28;20044;-75
2021/07/03 09:59:08;;;;;;;6.53;3.28;;;;;;;21.90;50.60;94837.69;5088695;28;20566;-74
2021/07/03 10:01:41;;;;;;;5.10;3.25;;;;;;;21.82;51.22;94832.31;5084701;28;20172;-74
2021/07/03 10:04:09;;;;;;;5.75;3.03;;;;;;;21.48;51.52;94826.50;5088578;28;20044;-74
2021/07/03 10:06:56;;;;;;;4.55;3.30;;;;;;;21.91;52.63;94828.66;5088532;28;20704;-74
2021/07/03 10:09:45;;;;;;;4.78;3.67;;;;;;;22.10;51.37;94815.19;5073254;28;20502;-75
2021/07/03 10:12:18;;;;;;;8.18;3.60;;;;;;;22.57;50.83;94833.38;5088432;28;20052;-75
2021/07/03 10:14:46;;;;;;;5.10;3.17;;;;;;;23.02;49.43;94835.84;5088041;28;20036;-75
2021/07/03 10:17:27;;;;;;;4.95;3.83;;;;;;;23.03;50.09;94826.00;5088067;28;20547;-74
2021/07/03 10:19:55;;;;;;;8.88;3.70;;;;;;;22.99;51.00;94820.53;5086595;28;20110;-74
2021/07/03 10:22:33;;;;;;;6.43;3.90;;;;;;;23.68;49.32;94819.06;5083245;28;20819;-74
2021/07/03 10:25:15;;;;;;;4.00;3.60;;;;;;;23.82;49.69;94817.03;5085828;28;20078;-74
2021/07/03 10:27:53;;;;;;;4.10;3.22;;;;;;;23.60;45.57;94822.47;5085836;28;20040;-74
2021/07/03 10:30:26;;;;;;;5.18;3.08;;;;;;;23.45;45.59;94824.50;5086734;28;20058;-76
2021/07/03 10:32:58;;;;;;;5.38;4.22;;;;;;;23.36;45.58;94822.97;5086415;28;20058;-75
2021/07/03 10:35:26;;;;;;;6.78;4.60;;;;;;;23.14;46.02;94826.50;5088175;28;20040;-75
2021/07/03 10:37:55;;;;;;;5.65;5.03;;;;;;;23.02;46.32;94824.44;5087908;28;20067;-75
2021/07/03 10:40:29;;;;;;;7.07;4.85;;;;;;;23.23;46.29;94809.50;5087471;28;20036;-75
2021/07/03 10:43:07;;;;;;;5.55;5.03;;;;;;;23.07;46.04;94803.88;5085895;28;20055;-75
2021/07/03 10:45:44;;;;;;;8.40;5.15;;;;;;;22.69;47.19;94807.03;5085774;28;20139;-75
2021/07/03 10:48:25;;;;;;;6.50;5.43;;;;;;;22.57;47.95;94798.88;5086547;28;20421;-74
2021/07/03 10:50:57;;;;;;;7.32;3.38;;;;;;;22.68;47.55;94805.47;5088004;28;20060;-74
2021/07/03 10:53:29;;;;;;;3.97;3.40;;;;;;;22.40;46.69;94817.38;5085687;28;20048;-75
2021/07/03 10:56:09;;;;;;;7.43;4.05;;;;;;;22.32;47.14;94803.78;5085670;28;20068;-74
2021/07/03 10:58:38;;;;;;;6.88;4.20;;;;;;;22.42;47.90;94791.31;5088335;28;20035;-74
2021/07/03 11:01:08;;;;;;;5.45;4.95;;;;;;;22.50;47.82;94782.63;5087626;28;20044;-74
2021/07/03 11:03:49;;;;;;;9.52;5.45;;;;;;;22.69;46.71;94804.38;5087196;28;20497;-74
2021/07/03 11:06:19;;;;;;;7.55;5.60;;;;;;;22.39;48.04;94786.66;5085210;28;20054;-73
2021/07/03 11:08:49;;;;;;;6.15;5.32;;;;;;;22.48;48.27;94784.81;5087775;28;20055;-73
2021/07/03 11:11:18;;;;;;;9.55;6.43;;;;;;;22.49;48.50;94778.38;5085473;28;20056;-73
2021/07/03 11:13:47;;;;;;;5.40;4.90;;;;;;;22.33;47.23;94781.47;5085952;28;20037;-74
2021/07/03 11:16:15;;;;;;;5.55;4.93;;;;;;;22.40;47.17;94772.28;5085658;28;20059;-75
2021/07/03 11:18:44;;;;;;;5.22;4.72;;;;;;;22.66;46.80;94781.09;5087535;28;20077;-74
2021/07/03 11:21:14;;;;;;;10.98;5.00;;;;;;;22.68;46.61;94778.13;5081743;28;20081;-75
2021/07/03 11:23:41;;;;;;;8.65;5.32;;;;;;;22.80;47.79;94774.91;5084738;28;20480;-75
2021/07/03 11:26:10;;;;;;;12.38;6.15;;;;;;;23.07;47.15;94774.66;5084561;28;20051;-75
2021/07/03 11:28:38;;;;;;;8.15;6.40;;;;;;;23.11;46.80;94774.81;5088545;28;20044;-74
2021/07/03 11:31:05;;;;;;;10.68;6.72;;;;;;;23.13;46.75;94771.84;5086359;28;20047;-74
2021/07/03 11:33:37;;;;;;;10.70;5.97;;;;;;;23.43;45.04;94765.59;5087007;28;20097;-75
2021/07/03 11:36:08;;;;;;;11.52;5.35;;;;;;;24.12;43.99;94753.25;5085397;28;20063;-74
2021/07/03 11:38:35;;;;;;;7.82;5.90;;;;;;;24.69;41.16;94765.41;5069551;28;20075;-74
2021/07/03 11:41:03;;;;;;;5.82;5.22;;;;;;;25.11;40.07;94764.66;5087195;28;20803;-75